sensor_id;sensor_type;location;lat;lon;timestamp;P1;durP1;ratioP1;P2;durP2;ratioP2
68319;SDS011;55168;51.120;17.024;2022-11-11T00:00:00;18.9;;;14.1;;
68319;SDS011;55168;51.120;17.024;2022-11-11T00:01:03;18.9;;;14.1;;
68319;SDS011;55168;51.120;17.024;2022-11-11T00:02:00;18.9;;;14.1;;
68319;SDS011;55168;51.120;17.024;2022-11-11T00:03:00;18.9;;;14.1;;
68319;SDS011;55168;51.120;17.024;2022-11-11T00:04:00;18.9;;;14.1;;
68319;SDS011;55168;51.120;17.024;2022-11-11T00:05:00;22.3;;;15.2;;
68319;SDS011;55168;51.120;17.024;2022-11-11T00:06:01;22.3;;;15.2;;
68319;SDS011;55168;51.120;17.024;2022-11-11T00:07:00;22.3;;;15.2;;
68319;SDS011;55168;51.120;17.024;2022-11-11T00:08:00;22.3;;;15.2;;
68319;SDS011;55168;51.120;17.024;2022-11-11T00:09:00;22.3;;;15.2;;
68319;SDS011;55168;51.120;17.024;2022-11-11T00:10:00;22.7;;;15.1;;
68319;SDS011;55168;51.120;17.024;2022-11-11T00:11:16;22.7;;;15.1;;
68319;SDS011;55168;51.120;17.024;2022-11-11T00:12:00;22.7;;;15.1;;
68319;SDS011;55168;51.120;17.024;2022-11-11T00:13:00;22.7;;;15.1;;
68319;SDS011;55168;51.120;17.024;2022-11-11T00:14:00;22.7;;;15.1;;
68319;SDS011;55168;51.120;17.024;2022-11-11T00:15:00;20.0;;;14.6;;
68319;SDS011;55168;51.120;17.024;2022-11-11T00:16:05;20.0;;;14.6;;
68319;SDS011;55168;51.120;17.024;2022-11-11T00:17:00;20.0;;;14.6;;
68319;SDS011;55168;51.120;17.024;2022-11-11T00:18:00;20.0;;;14.6;;
68319;SDS011;55168;51.120;17.024;2022-11-11T00:19:00;20.0;;;14.6;;
68319;SDS011;55168;51.120;17.024;2022-11-11T00:20:00;19.5;;;13.8;;
68319;SDS011;55168;51.120;17.024;2022-11-11T00:21:00;19.5;;;13.8;;
68319;SDS011;55168;51.120;17.024;2022-11-11T00:22:00;19.5;;;13.8;;
68319;SDS011;55168;51.120;17.024;2022-11-11T00:23:00;19.5;;;13.8;;
68319;SDS011;55168;51.120;17.024;2022-11-11T00:24:00;19.5;;;13.8;;
68319;SDS011;55168;51.120;17.024;2022-11-11T00:25:00;21.0;;;14.4;;
68319;SDS011;55168;51.120;17.024;2022-11-11T00:26:00;21.0;;;14.4;;
68319;SDS011;55168;51.120;17.024;2022-11-11T00:27:01;21.0;;;14.4;;
68319;SDS011;55168;51.120;17.024;2022-11-11T00:28:00;21.0;;;14.4;;
68319;SDS011;55168;51.120;17.024;2022-11-11T00:29:00;21.0;;;14.4;;
68319;SDS011;55168;51.120;17.024;2022-11-11T00:30:00;20.5;;;14.1;;
68319;SDS011;55168;51.120;17.024;2022-11-11T00:31:02;20.5;;;14.1;;
68319;SDS011;55168;51.120;17.024;2022-11-11T00:32:00;20.5;;;14.1;;
68319;SDS011;55168;51.120;17.024;2022-11-11T00:33:00;20.5;;;14.1;;
68319;SDS011;55168;51.120;17.024;2022-11-11T00:34:00;20.5;;;14.1;;
68319;SDS011;55168;51.120;17.024;2022-11-11T00:35:00;19.2;;;13.8;;
68319;SDS011;55168;51.120;17.024;2022-11-11T00:36:00;19.2;;;13.8;;
68319;SDS011;55168;51.120;17.024;2022-11-11T00:37:00;19.2;;;13.8;;
68319;SDS011;55168;51.120;17.024;2022-11-11T00:38:09;19.2;;;13.8;;
68319;SDS011;55168;51.120;17.024;2022-11-11T00:39:00;19.2;;;13.8;;
68319;SDS011;55168;51.120;17.024;2022-11-11T00:40:00;18.1;;;13.6;;
68319;SDS011;55168;51.120;17.024;2022-11-11T00:41:00;18.1;;;13.6;;
68319;SDS011;55168;51.120;17.024;2022-11-11T00:42:00;18.1;;;13.6;;
68319;SDS011;55168;51.120;17.024;2022-11-11T00:43:00;18.1;;;13.6;;
68319;SDS011;55168;51.120;17.024;2022-11-11T00:44:00;18.1;;;13.6;;
68319;SDS011;55168;51.120;17.024;2022-11-11T00:45:00;20.1;;;13.1;;
68319;SDS011;55168;51.120;17.024;2022-11-11T00:46:00;20.1;;;13.1;;
68319;SDS011;55168;51.120;17.024;2022-11-11T00:47:00;20.1;;;13.1;;
68319;SDS011;55168;51.120;17.024;2022-11-11T00:48:00;20.1;;;13.1;;
68319;SDS011;55168;51.120;17.024;2022-11-11T00:49:00;20.1;;;13.1;;
68319;SDS011;55168;51.120;17.024;2022-11-11T00:50:00;18.8;;;13.4;;
68319;SDS011;55168;51.120;17.024;2022-11-11T00:51:00;18.8;;;13.4;;
68319;SDS011;55168;51.120;17.024;2022-11-11T00:52:00;18.8;;;13.4;;
68319;SDS011;55168;51.120;17.024;2022-11-11T00:53:00;18.8;;;13.4;;
68319;SDS011;55168;51.120;17.024;2022-11-11T00:54:00;18.8;;;13.4;;
68319;SDS011;55168;51.120;17.024;2022-11-11T00:55:00;20.3;;;13.3;;
68319;SDS011;55168;51.120;17.024;2022-11-11T00:56:00;20.3;;;13.3;;
68319;SDS011;55168;51.120;17.024;2022-11-11T00:57:00;20.3;;;13.3;;
68319;SDS011;55168;51.120;17.024;2022-11-11T00:58:00;20.3;;;13.3;;
68319;SDS011;55168;51.120;17.024;2022-11-11T00:59:00;20.3;;;13.3;;
68319;SDS011;55168;51.120;17.024;2022-11-11T01:00:00;15.9;;;12.7;;
68319;SDS011;55168;51.120;17.024;2022-11-11T01:01:00;15.9;;;12.7;;
68319;SDS011;55168;51.120;17.024;2022-11-11T01:02:00;15.9;;;12.7;;
68319;SDS011;55168;51.120;17.024;2022-11-11T01:03:00;15.9;;;12.7;;
68319;SDS011;55168;51.120;17.024;2022-11-11T01:04:00;15.9;;;12.7;;
68319;SDS011;55168;51.120;17.024;2022-11-11T01:05:00;18.5;;;12.6;;
68319;SDS011;55168;51.120;17.024;2022-11-11T01:06:01;18.5;;;12.6;;
68319;SDS011;55168;51.120;17.024;2022-11-11T01:07:00;18.5;;;12.6;;
68319;SDS011;55168;51.120;17.024;2022-11-11T01:08:00;18.5;;;12.6;;
68319;SDS011;55168;51.120;17.024;2022-11-11T01:09:04;18.5;;;12.6;;
68319;SDS011;55168;51.120;17.024;2022-11-11T01:10:00;21.0;;;15.2;;
68319;SDS011;55168;51.120;17.024;2022-11-11T01:11:00;21.0;;;15.2;;
68319;SDS011;55168;51.120;17.024;2022-11-11T01:12:00;21.0;;;15.2;;
68319;SDS011;55168;51.120;17.024;2022-11-11T01:13:00;21.0;;;15.2;;
68319;SDS011;55168;51.120;17.024;2022-11-11T01:14:00;21.0;;;15.2;;
68319;SDS011;55168;51.120;17.024;2022-11-11T01:15:00;18.7;;;12.8;;
68319;SDS011;55168;51.120;17.024;2022-11-11T01:16:04;18.7;;;12.8;;
68319;SDS011;55168;51.120;17.024;2022-11-11T01:17:00;18.7;;;12.8;;
68319;SDS011;55168;51.120;17.024;2022-11-11T01:18:00;18.7;;;12.8;;
68319;SDS011;55168;51.120;17.024;2022-11-11T01:19:00;18.7;;;12.8;;
68319;SDS011;55168;51.120;17.024;2022-11-11T01:20:00;16.5;;;12.0;;
68319;SDS011;55168;51.120;17.024;2022-11-11T01:21:04;16.5;;;12.0;;
68319;SDS011;55168;51.120;17.024;2022-11-11T01:22:00;16.5;;;12.0;;
68319;SDS011;55168;51.120;17.024;2022-11-11T01:23:00;16.5;;;12.0;;
68319;SDS011;55168;51.120;17.024;2022-11-11T01:24:00;16.5;;;12.0;;
68319;SDS011;55168;51.120;17.024;2022-11-11T01:25:00;18.0;;;12.6;;
68319;SDS011;55168;51.120;17.024;2022-11-11T01:26:01;18.0;;;12.6;;
68319;SDS011;55168;51.120;17.024;2022-11-11T01:27:00;18.0;;;12.6;;
68319;SDS011;55168;51.120;17.024;2022-11-11T01:28:00;18.0;;;12.6;;
68319;SDS011;55168;51.120;17.024;2022-11-11T01:29:00;18.0;;;12.6;;
68319;SDS011;55168;51.120;17.024;2022-11-11T01:30:00;18.4;;;12.0;;
68319;SDS011;55168;51.120;17.024;2022-11-11T01:31:09;18.4;;;12.0;;
68319;SDS011;55168;51.120;17.024;2022-11-11T01:32:00;18.4;;;12.0;;
68319;SDS011;55168;51.120;17.024;2022-11-11T01:33:00;18.4;;;12.0;;
68319;SDS011;55168;51.120;17.024;2022-11-11T01:34:00;18.4;;;12.0;;
68319;SDS011;55168;51.120;17.024;2022-11-11T01:35:00;19.2;;;12.3;;
68319;SDS011;55168;51.120;17.024;2022-11-11T01:36:03;19.2;;;12.3;;
68319;SDS011;55168;51.120;17.024;2022-11-11T01:37:00;19.2;;;12.3;;
68319;SDS011;55168;51.120;17.024;2022-11-11T01:38:00;19.2;;;12.3;;
68319;SDS011;55168;51.120;17.024;2022-11-11T01:39:01;19.2;;;12.3;;
68319;SDS011;55168;51.120;17.024;2022-11-11T01:40:00;17.0;;;12.6;;
68319;SDS011;55168;51.120;17.024;2022-11-11T01:41:00;17.0;;;12.6;;
68319;SDS011;55168;51.120;17.024;2022-11-11T01:42:00;17.0;;;12.6;;
68319;SDS011;55168;51.120;17.024;2022-11-11T01:45:00;18.7;;;12.1;;
68319;SDS011;55168;51.120;17.024;2022-11-11T01:46:00;18.7;;;12.1;;
68319;SDS011;55168;51.120;17.024;2022-11-11T01:47:03;18.7;;;12.1;;
68319;SDS011;55168;51.120;17.024;2022-11-11T01:48:00;18.7;;;12.1;;
68319;SDS011;55168;51.120;17.024;2022-11-11T01:49:08;18.7;;;12.1;;
68319;SDS011;55168;51.120;17.024;2022-11-11T01:50:00;17.9;;;11.9;;
68319;SDS011;55168;51.120;17.024;2022-11-11T01:51:00;17.9;;;11.9;;
68319;SDS011;55168;51.120;17.024;2022-11-11T01:52:13;17.9;;;11.9;;
68319;SDS011;55168;51.120;17.024;2022-11-11T01:53:00;17.9;;;11.9;;
68319;SDS011;55168;51.120;17.024;2022-11-11T01:54:03;17.9;;;11.9;;
68319;SDS011;55168;51.120;17.024;2022-11-11T01:56:01;17.5;;;12.6;;
68319;SDS011;55168;51.120;17.024;2022-11-11T01:57:06;17.5;;;12.6;;
68319;SDS011;55168;51.120;17.024;2022-11-11T01:58:03;17.5;;;12.6;;
68319;SDS011;55168;51.120;17.024;2022-11-11T01:59:02;17.5;;;12.6;;
68319;SDS011;55168;51.120;17.024;2022-11-11T02:00:03;17.3;;;12.0;;
68319;SDS011;55168;51.120;17.024;2022-11-11T02:01:00;17.3;;;12.0;;
68319;SDS011;55168;51.120;17.024;2022-11-11T02:02:02;17.3;;;12.0;;
68319;SDS011;55168;51.120;17.024;2022-11-11T02:03:05;17.3;;;12.0;;
68319;SDS011;55168;51.120;17.024;2022-11-11T02:04:01;17.3;;;12.0;;
68319;SDS011;55168;51.120;17.024;2022-11-11T02:05:02;16.3;;;11.5;;
68319;SDS011;55168;51.120;17.024;2022-11-11T02:06:00;16.3;;;11.5;;
68319;SDS011;55168;51.120;17.024;2022-11-11T02:07:03;16.3;;;11.5;;
68319;SDS011;55168;51.120;17.024;2022-11-11T02:08:03;16.3;;;11.5;;
68319;SDS011;55168;51.120;17.024;2022-11-11T02:09:02;16.3;;;11.5;;
68319;SDS011;55168;51.120;17.024;2022-11-11T02:10:00;16.6;;;11.4;;
68319;SDS011;55168;51.120;17.024;2022-11-11T02:11:06;16.6;;;11.4;;
68319;SDS011;55168;51.120;17.024;2022-11-11T02:12:02;16.6;;;11.4;;
68319;SDS011;55168;51.120;17.024;2022-11-11T02:13:00;16.6;;;11.4;;
68319;SDS011;55168;51.120;17.024;2022-11-11T02:14:00;16.6;;;11.4;;
68319;SDS011;55168;51.120;17.024;2022-11-11T02:15:01;16.4;;;11.6;;
68319;SDS011;55168;51.120;17.024;2022-11-11T02:16:00;16.4;;;11.6;;
68319;SDS011;55168;51.120;17.024;2022-11-11T02:17:00;16.4;;;11.6;;
68319;SDS011;55168;51.120;17.024;2022-11-11T02:18:00;16.4;;;11.6;;
68319;SDS011;55168;51.120;17.024;2022-11-11T02:19:00;16.4;;;11.6;;
68319;SDS011;55168;51.120;17.024;2022-11-11T02:20:02;18.7;;;11.5;;
68319;SDS011;55168;51.120;17.024;2022-11-11T02:21:00;18.7;;;11.5;;
68319;SDS011;55168;51.120;17.024;2022-11-11T02:22:01;18.7;;;11.5;;
68319;SDS011;55168;51.120;17.024;2022-11-11T02:23:13;18.7;;;11.5;;
68319;SDS011;55168;51.120;17.024;2022-11-11T02:24:03;18.7;;;11.5;;
68319;SDS011;55168;51.120;17.024;2022-11-11T02:25:02;17.4;;;11.5;;
68319;SDS011;55168;51.120;17.024;2022-11-11T02:26:01;17.4;;;11.5;;
68319;SDS011;55168;51.120;17.024;2022-11-11T02:27:01;17.4;;;11.5;;
68319;SDS011;55168;51.120;17.024;2022-11-11T02:28:02;17.4;;;11.5;;
68319;SDS011;55168;51.120;17.024;2022-11-11T02:29:02;17.4;;;11.5;;
68319;SDS011;55168;51.120;17.024;2022-11-11T02:30:00;15.0;;;10.9;;
68319;SDS011;55168;51.120;17.024;2022-11-11T02:31:00;15.0;;;10.9;;
68319;SDS011;55168;51.120;17.024;2022-11-11T02:32:00;15.0;;;10.9;;
68319;SDS011;55168;51.120;17.024;2022-11-11T02:33:00;15.0;;;10.9;;
68319;SDS011;55168;51.120;17.024;2022-11-11T02:34:00;15.0;;;10.9;;
68319;SDS011;55168;51.120;17.024;2022-11-11T02:35:00;14.3;;;11.0;;
68319;SDS011;55168;51.120;17.024;2022-11-11T02:36:00;14.3;;;11.0;;
68319;SDS011;55168;51.120;17.024;2022-11-11T02:37:02;14.3;;;11.0;;
68319;SDS011;55168;51.120;17.024;2022-11-11T02:38:01;14.3;;;11.0;;
68319;SDS011;55168;51.120;17.024;2022-11-11T02:39:00;14.3;;;11.0;;
68319;SDS011;55168;51.120;17.024;2022-11-11T02:40:00;16.0;;;11.2;;
68319;SDS011;55168;51.120;17.024;2022-11-11T02:41:00;16.0;;;11.2;;
68319;SDS011;55168;51.120;17.024;2022-11-11T02:42:00;16.0;;;11.2;;
68319;SDS011;55168;51.120;17.024;2022-11-11T02:43:00;16.0;;;11.2;;
68319;SDS011;55168;51.120;17.024;2022-11-11T02:44:00;16.0;;;11.2;;
68319;SDS011;55168;51.120;17.024;2022-11-11T02:45:00;17.9;;;11.5;;
68319;SDS011;55168;51.120;17.024;2022-11-11T02:46:02;17.9;;;11.5;;
68319;SDS011;55168;51.120;17.024;2022-11-11T02:47:00;17.9;;;11.5;;
68319;SDS011;55168;51.120;17.024;2022-11-11T02:48:00;17.9;;;11.5;;
68319;SDS011;55168;51.120;17.024;2022-11-11T02:49:00;17.9;;;11.5;;
68319;SDS011;55168;51.120;17.024;2022-11-11T02:50:00;17.3;;;11.6;;
68319;SDS011;55168;51.120;17.024;2022-11-11T02:51:00;17.3;;;11.6;;
68319;SDS011;55168;51.120;17.024;2022-11-11T02:52:00;17.3;;;11.6;;
68319;SDS011;55168;51.120;17.024;2022-11-11T02:53:00;17.3;;;11.6;;
68319;SDS011;55168;51.120;17.024;2022-11-11T02:54:00;17.3;;;11.6;;
68319;SDS011;55168;51.120;17.024;2022-11-11T02:55:01;18.5;;;11.4;;
68319;SDS011;55168;51.120;17.024;2022-11-11T02:56:00;18.5;;;11.4;;
68319;SDS011;55168;51.120;17.024;2022-11-11T02:57:00;18.5;;;11.4;;
68319;SDS011;55168;51.120;17.024;2022-11-11T02:58:00;18.5;;;11.4;;
68319;SDS011;55168;51.120;17.024;2022-11-11T02:59:00;18.5;;;11.4;;
68319;SDS011;55168;51.120;17.024;2022-11-11T03:00:00;18.3;;;11.7;;
68319;SDS011;55168;51.120;17.024;2022-11-11T03:01:00;18.3;;;11.7;;
68319;SDS011;55168;51.120;17.024;2022-11-11T03:02:00;18.3;;;11.7;;
68319;SDS011;55168;51.120;17.024;2022-11-11T03:03:00;18.3;;;11.7;;
68319;SDS011;55168;51.120;17.024;2022-11-11T03:04:00;18.3;;;11.7;;
68319;SDS011;55168;51.120;17.024;2022-11-11T03:05:00;17.5;;;12.1;;
68319;SDS011;55168;51.120;17.024;2022-11-11T03:06:00;17.5;;;12.1;;
68319;SDS011;55168;51.120;17.024;2022-11-11T03:07:00;17.5;;;12.1;;
68319;SDS011;55168;51.120;17.024;2022-11-11T03:08:00;17.5;;;12.1;;
68319;SDS011;55168;51.120;17.024;2022-11-11T03:09:00;17.5;;;12.1;;
68319;SDS011;55168;51.120;17.024;2022-11-11T03:10:00;18.4;;;12.0;;
68319;SDS011;55168;51.120;17.024;2022-11-11T03:11:00;18.4;;;12.0;;
68319;SDS011;55168;51.120;17.024;2022-11-11T03:12:00;18.4;;;12.0;;
68319;SDS011;55168;51.120;17.024;2022-11-11T03:13:00;18.4;;;12.0;;
68319;SDS011;55168;51.120;17.024;2022-11-11T03:14:00;18.4;;;12.0;;
68319;SDS011;55168;51.120;17.024;2022-11-11T03:15:00;17.2;;;11.7;;
68319;SDS011;55168;51.120;17.024;2022-11-11T03:16:00;17.2;;;11.7;;
68319;SDS011;55168;51.120;17.024;2022-11-11T03:17:00;17.2;;;11.7;;
68319;SDS011;55168;51.120;17.024;2022-11-11T03:18:00;17.2;;;11.7;;
68319;SDS011;55168;51.120;17.024;2022-11-11T03:19:00;17.2;;;11.7;;
68319;SDS011;55168;51.120;17.024;2022-11-11T03:20:00;17.1;;;12.8;;
68319;SDS011;55168;51.120;17.024;2022-11-11T03:21:00;17.1;;;12.8;;
68319;SDS011;55168;51.120;17.024;2022-11-11T03:22:00;17.1;;;12.8;;
68319;SDS011;55168;51.120;17.024;2022-11-11T03:23:05;17.1;;;12.8;;
68319;SDS011;55168;51.120;17.024;2022-11-11T03:24:00;17.1;;;12.8;;
68319;SDS011;55168;51.120;17.024;2022-11-11T03:25:00;20.3;;;14.7;;
68319;SDS011;55168;51.120;17.024;2022-11-11T03:26:00;20.3;;;14.7;;
68319;SDS011;55168;51.120;17.024;2022-11-11T03:27:00;20.3;;;14.7;;
68319;SDS011;55168;51.120;17.024;2022-11-11T03:28:00;20.3;;;14.7;;
68319;SDS011;55168;51.120;17.024;2022-11-11T03:29:00;20.3;;;14.7;;
68319;SDS011;55168;51.120;17.024;2022-11-11T03:30:00;22.9;;;15.5;;
68319;SDS011;55168;51.120;17.024;2022-11-11T03:31:00;22.9;;;15.5;;
68319;SDS011;55168;51.120;17.024;2022-11-11T03:32:00;22.9;;;15.5;;
68319;SDS011;55168;51.120;17.024;2022-11-11T03:33:00;22.9;;;15.5;;
68319;SDS011;55168;51.120;17.024;2022-11-11T03:34:00;22.9;;;15.5;;
68319;SDS011;55168;51.120;17.024;2022-11-11T03:35:00;19.2;;;15.2;;
68319;SDS011;55168;51.120;17.024;2022-11-11T03:36:00;19.2;;;15.2;;
68319;SDS011;55168;51.120;17.024;2022-11-11T03:37:00;19.2;;;15.2;;
68319;SDS011;55168;51.120;17.024;2022-11-11T03:38:01;19.2;;;15.2;;
68319;SDS011;55168;51.120;17.024;2022-11-11T03:39:00;19.2;;;15.2;;
68319;SDS011;55168;51.120;17.024;2022-11-11T03:40:00;23.7;;;16.0;;
68319;SDS011;55168;51.120;17.024;2022-11-11T03:41:00;23.7;;;16.0;;
68319;SDS011;55168;51.120;17.024;2022-11-11T03:42:00;23.7;;;16.0;;
68319;SDS011;55168;51.120;17.024;2022-11-11T03:43:00;23.7;;;16.0;;
68319;SDS011;55168;51.120;17.024;2022-11-11T03:44:00;23.7;;;16.0;;
68319;SDS011;55168;51.120;17.024;2022-11-11T03:45:00;17.1;;;12.2;;
68319;SDS011;55168;51.120;17.024;2022-11-11T03:46:02;17.1;;;12.2;;
68319;SDS011;55168;51.120;17.024;2022-11-11T03:47:00;17.1;;;12.2;;
68319;SDS011;55168;51.120;17.024;2022-11-11T03:48:00;17.1;;;12.2;;
68319;SDS011;55168;51.120;17.024;2022-11-11T03:49:00;17.1;;;12.2;;
68319;SDS011;55168;51.120;17.024;2022-11-11T03:50:00;18.8;;;12.3;;
68319;SDS011;55168;51.120;17.024;2022-11-11T03:51:00;18.8;;;12.3;;
68319;SDS011;55168;51.120;17.024;2022-11-11T03:52:00;18.8;;;12.3;;
68319;SDS011;55168;51.120;17.024;2022-11-11T03:53:00;18.8;;;12.3;;
68319;SDS011;55168;51.120;17.024;2022-11-11T03:54:00;18.8;;;12.3;;
68319;SDS011;55168;51.120;17.024;2022-11-11T03:55:00;17.6;;;12.1;;
68319;SDS011;55168;51.120;17.024;2022-11-11T03:56:00;17.6;;;12.1;;
68319;SDS011;55168;51.120;17.024;2022-11-11T03:57:00;17.6;;;12.1;;
68319;SDS011;55168;51.120;17.024;2022-11-11T03:58:00;17.6;;;12.1;;
68319;SDS011;55168;51.120;17.024;2022-11-11T03:59:00;17.6;;;12.1;;
68319;SDS011;55168;51.120;17.024;2022-11-11T04:00:00;16.7;;;12.3;;
68319;SDS011;55168;51.120;17.024;2022-11-11T04:01:00;16.7;;;12.3;;
68319;SDS011;55168;51.120;17.024;2022-11-11T04:02:00;16.7;;;12.3;;
68319;SDS011;55168;51.120;17.024;2022-11-11T04:04:00;16.7;;;12.3;;
68319;SDS011;55168;51.120;17.024;2022-11-11T04:05:00;18.0;;;11.7;;
68319;SDS011;55168;51.120;17.024;2022-11-11T04:06:00;18.0;;;11.7;;
68319;SDS011;55168;51.120;17.024;2022-11-11T04:07:00;18.0;;;11.7;;
68319;SDS011;55168;51.120;17.024;2022-11-11T04:08:00;18.0;;;11.7;;
68319;SDS011;55168;51.120;17.024;2022-11-11T04:09:00;18.0;;;11.7;;
68319;SDS011;55168;51.120;17.024;2022-11-11T04:10:00;18.2;;;12.0;;
68319;SDS011;55168;51.120;17.024;2022-11-11T04:11:04;18.2;;;12.0;;
68319;SDS011;55168;51.120;17.024;2022-11-11T04:12:00;18.2;;;12.0;;
68319;SDS011;55168;51.120;17.024;2022-11-11T04:13:00;18.2;;;12.0;;
68319;SDS011;55168;51.120;17.024;2022-11-11T04:14:02;18.2;;;12.0;;
68319;SDS011;55168;51.120;17.024;2022-11-11T04:15:00;17.0;;;11.6;;
68319;SDS011;55168;51.120;17.024;2022-11-11T04:16:00;17.0;;;11.6;;
68319;SDS011;55168;51.120;17.024;2022-11-11T04:17:00;17.0;;;11.6;;
68319;SDS011;55168;51.120;17.024;2022-11-11T04:18:00;17.0;;;11.6;;
68319;SDS011;55168;51.120;17.024;2022-11-11T04:19:00;17.0;;;11.6;;
68319;SDS011;55168;51.120;17.024;2022-11-11T04:20:00;18.1;;;12.1;;
68319;SDS011;55168;51.120;17.024;2022-11-11T04:21:00;18.1;;;12.1;;
68319;SDS011;55168;51.120;17.024;2022-11-11T04:22:00;18.1;;;12.1;;
68319;SDS011;55168;51.120;17.024;2022-11-11T04:23:00;18.1;;;12.1;;
68319;SDS011;55168;51.120;17.024;2022-11-11T04:24:00;18.1;;;12.1;;
68319;SDS011;55168;51.120;17.024;2022-11-11T04:25:00;19.1;;;12.2;;
68319;SDS011;55168;51.120;17.024;2022-11-11T04:26:00;19.1;;;12.2;;
68319;SDS011;55168;51.120;17.024;2022-11-11T04:27:02;19.1;;;12.2;;
68319;SDS011;55168;51.120;17.024;2022-11-11T04:28:00;19.1;;;12.2;;
68319;SDS011;55168;51.120;17.024;2022-11-11T04:29:00;19.1;;;12.2;;
68319;SDS011;55168;51.120;17.024;2022-11-11T04:30:00;15.1;;;11.8;;
68319;SDS011;55168;51.120;17.024;2022-11-11T04:31:00;15.1;;;11.8;;
68319;SDS011;55168;51.120;17.024;2022-11-11T04:32:04;15.1;;;11.8;;
68319;SDS011;55168;51.120;17.024;2022-11-11T04:33:00;15.1;;;11.8;;
68319;SDS011;55168;51.120;17.024;2022-11-11T04:34:00;15.1;;;11.8;;
68319;SDS011;55168;51.120;17.024;2022-11-11T04:35:02;16.2;;;12.2;;
68319;SDS011;55168;51.120;17.024;2022-11-11T04:36:00;16.2;;;12.2;;
68319;SDS011;55168;51.120;17.024;2022-11-11T04:37:00;16.2;;;12.2;;
68319;SDS011;55168;51.120;17.024;2022-11-11T04:38:00;16.2;;;12.2;;
68319;SDS011;55168;51.120;17.024;2022-11-11T04:39:00;16.2;;;12.2;;
68319;SDS011;55168;51.120;17.024;2022-11-11T04:40:00;14.8;;;11.1;;
68319;SDS011;55168;51.120;17.024;2022-11-11T04:41:00;14.8;;;11.1;;
68319;SDS011;55168;51.120;17.024;2022-11-11T04:42:00;14.8;;;11.1;;
68319;SDS011;55168;51.120;17.024;2022-11-11T04:43:00;14.8;;;11.1;;
68319;SDS011;55168;51.120;17.024;2022-11-11T04:44:00;14.8;;;11.1;;
68319;SDS011;55168;51.120;17.024;2022-11-11T04:45:01;16.5;;;12.1;;
68319;SDS011;55168;51.120;17.024;2022-11-11T04:46:00;16.5;;;12.1;;
68319;SDS011;55168;51.120;17.024;2022-11-11T04:47:00;16.5;;;12.1;;
68319;SDS011;55168;51.120;17.024;2022-11-11T04:48:02;16.5;;;12.1;;
68319;SDS011;55168;51.120;17.024;2022-11-11T04:49:00;16.5;;;12.1;;
68319;SDS011;55168;51.120;17.024;2022-11-11T04:50:00;18.9;;;11.9;;
68319;SDS011;55168;51.120;17.024;2022-11-11T04:51:00;18.9;;;11.9;;
68319;SDS011;55168;51.120;17.024;2022-11-11T04:52:00;18.9;;;11.9;;
68319;SDS011;55168;51.120;17.024;2022-11-11T04:53:01;18.9;;;11.9;;
68319;SDS011;55168;51.120;17.024;2022-11-11T04:54:00;18.9;;;11.9;;
68319;SDS011;55168;51.120;17.024;2022-11-11T04:55:00;15.5;;;11.9;;
68319;SDS011;55168;51.120;17.024;2022-11-11T04:56:00;15.5;;;11.9;;
68319;SDS011;55168;51.120;17.024;2022-11-11T04:57:00;15.5;;;11.9;;
68319;SDS011;55168;51.120;17.024;2022-11-11T04:58:00;15.5;;;11.9;;
68319;SDS011;55168;51.120;17.024;2022-11-11T04:59:00;15.5;;;11.9;;
68319;SDS011;55168;51.120;17.024;2022-11-11T05:00:00;18.0;;;12.2;;
68319;SDS011;55168;51.120;17.024;2022-11-11T05:01:00;18.0;;;12.2;;
68319;SDS011;55168;51.120;17.024;2022-11-11T05:02:00;18.0;;;12.2;;
68319;SDS011;55168;51.120;17.024;2022-11-11T05:03:00;18.0;;;12.2;;
68319;SDS011;55168;51.120;17.024;2022-11-11T05:04:00;18.0;;;12.2;;
68319;SDS011;55168;51.120;17.024;2022-11-11T05:05:00;16.7;;;11.9;;
68319;SDS011;55168;51.120;17.024;2022-11-11T05:06:00;16.7;;;11.9;;
68319;SDS011;55168;51.120;17.024;2022-11-11T05:07:00;16.7;;;11.9;;
68319;SDS011;55168;51.120;17.024;2022-11-11T05:08:00;16.7;;;11.9;;
68319;SDS011;55168;51.120;17.024;2022-11-11T05:09:00;16.7;;;11.9;;
68319;SDS011;55168;51.120;17.024;2022-11-11T05:10:00;17.7;;;11.7;;
68319;SDS011;55168;51.120;17.024;2022-11-11T05:11:00;17.7;;;11.7;;
68319;SDS011;55168;51.120;17.024;2022-11-11T05:12:00;17.7;;;11.7;;
68319;SDS011;55168;51.120;17.024;2022-11-11T05:13:00;17.7;;;11.7;;
68319;SDS011;55168;51.120;17.024;2022-11-11T05:14:01;17.7;;;11.7;;
68319;SDS011;55168;51.120;17.024;2022-11-11T05:15:00;17.9;;;12.0;;
68319;SDS011;55168;51.120;17.024;2022-11-11T05:16:00;17.9;;;12.0;;
68319;SDS011;55168;51.120;17.024;2022-11-11T05:17:00;17.9;;;12.0;;
68319;SDS011;55168;51.120;17.024;2022-11-11T05:18:00;17.9;;;12.0;;
68319;SDS011;55168;51.120;17.024;2022-11-11T05:19:00;17.9;;;12.0;;
68319;SDS011;55168;51.120;17.024;2022-11-11T05:20:00;20.3;;;12.0;;
68319;SDS011;55168;51.120;17.024;2022-11-11T05:21:00;20.3;;;12.0;;
68319;SDS011;55168;51.120;17.024;2022-11-11T05:22:06;20.3;;;12.0;;
68319;SDS011;55168;51.120;17.024;2022-11-11T05:23:00;20.3;;;12.0;;
68319;SDS011;55168;51.120;17.024;2022-11-11T05:24:00;20.3;;;12.0;;
68319;SDS011;55168;51.120;17.024;2022-11-11T05:25:00;16.3;;;11.4;;
68319;SDS011;55168;51.120;17.024;2022-11-11T05:26:00;16.3;;;11.4;;
68319;SDS011;55168;51.120;17.024;2022-11-11T05:27:00;16.3;;;11.4;;
68319;SDS011;55168;51.120;17.024;2022-11-11T05:28:00;16.3;;;11.4;;
68319;SDS011;55168;51.120;17.024;2022-11-11T05:29:00;16.3;;;11.4;;
68319;SDS011;55168;51.120;17.024;2022-11-11T05:30:00;19.3;;;12.1;;
68319;SDS011;55168;51.120;17.024;2022-11-11T05:31:00;19.3;;;12.1;;
68319;SDS011;55168;51.120;17.024;2022-11-11T05:32:00;19.3;;;12.1;;
68319;SDS011;55168;51.120;17.024;2022-11-11T05:33:01;19.3;;;12.1;;
68319;SDS011;55168;51.120;17.024;2022-11-11T05:34:00;19.3;;;12.1;;
68319;SDS011;55168;51.120;17.024;2022-11-11T05:35:00;16.8;;;11.7;;
68319;SDS011;55168;51.120;17.024;2022-11-11T05:36:00;16.8;;;11.7;;
68319;SDS011;55168;51.120;17.024;2022-11-11T05:37:00;16.8;;;11.7;;
68319;SDS011;55168;51.120;17.024;2022-11-11T05:38:01;16.8;;;11.7;;
68319;SDS011;55168;51.120;17.024;2022-11-11T05:39:00;16.8;;;11.7;;
68319;SDS011;55168;51.120;17.024;2022-11-11T05:40:00;17.6;;;11.7;;
68319;SDS011;55168;51.120;17.024;2022-11-11T05:41:00;17.6;;;11.7;;
68319;SDS011;55168;51.120;17.024;2022-11-11T05:42:00;17.6;;;11.7;;
68319;SDS011;55168;51.120;17.024;2022-11-11T05:43:00;17.6;;;11.7;;
68319;SDS011;55168;51.120;17.024;2022-11-11T05:44:00;17.6;;;11.7;;
68319;SDS011;55168;51.120;17.024;2022-11-11T05:45:00;16.8;;;12.0;;
68319;SDS011;55168;51.120;17.024;2022-11-11T05:46:00;16.8;;;12.0;;
68319;SDS011;55168;51.120;17.024;2022-11-11T05:47:00;16.8;;;12.0;;
68319;SDS011;55168;51.120;17.024;2022-11-11T05:48:01;16.8;;;12.0;;
68319;SDS011;55168;51.120;17.024;2022-11-11T05:49:00;18.7;;;12.5;;
68319;SDS011;55168;51.120;17.024;2022-11-11T05:50:00;18.7;;;12.5;;
68319;SDS011;55168;51.120;17.024;2022-11-11T05:51:00;18.7;;;12.5;;
68319;SDS011;55168;51.120;17.024;2022-11-11T05:52:00;18.7;;;12.5;;
68319;SDS011;55168;51.120;17.024;2022-11-11T05:53:00;18.7;;;12.5;;
68319;SDS011;55168;51.120;17.024;2022-11-11T05:54:00;21.2;;;12.6;;
68319;SDS011;55168;51.120;17.024;2022-11-11T05:55:00;21.2;;;12.6;;
68319;SDS011;55168;51.120;17.024;2022-11-11T05:56:00;21.2;;;12.6;;
68319;SDS011;55168;51.120;17.024;2022-11-11T05:57:00;21.2;;;12.6;;
68319;SDS011;55168;51.120;17.024;2022-11-11T05:58:00;21.2;;;12.6;;
68319;SDS011;55168;51.120;17.024;2022-11-11T05:59:00;18.3;;;12.5;;